sensor_id;sensor_type;location;lat;lon;timestamp;P1;durP1;ratioP1;P2;durP2;ratioP2
52786;SDS011;38661;53.152;5.846;2022-08-03T00:01:31;10.13;;;4.75;;
52786;SDS011;38661;53.152;5.846;2022-08-03T00:03:58;9.45;;;5.45;;
52786;SDS011;38661;53.152;5.846;2022-08-03T00:06:23;8.25;;;3.78;;
52786;SDS011;38661;53.152;5.846;2022-08-03T00:08:49;8.65;;;4.00;;
52786;SDS011;38661;53.152;5.846;2022-08-03T00:11:15;10.43;;;4.63;;
52786;SDS011;38661;53.152;5.846;2022-08-03T00:13:41;8.77;;;4.28;;
52786;SDS011;38661;53.152;5.846;2022-08-03T00:16:06;11.65;;;4.80;;
52786;SDS011;38661;53.152;5.846;2022-08-03T00:18:32;9.73;;;4.10;;
52786;SDS011;38661;53.152;5.846;2022-08-03T00:20:58;10.57;;;3.97;;
52786;SDS011;38661;53.152;5.846;2022-08-03T00:23:24;8.52;;;4.57;;
52786;SDS011;38661;53.152;5.846;2022-08-03T00:25:49;11.45;;;4.65;;
52786;SDS011;38661;53.152;5.846;2022-08-03T00:28:15;9.05;;;4.90;;
52786;SDS011;38661;53.152;5.846;2022-08-03T00:30:41;7.80;;;4.55;;
52786;SDS011;38661;53.152;5.846;2022-08-03T00:33:07;11.35;;;4.60;;
52786;SDS011;38661;53.152;5.846;2022-08-03T00:35:34;11.52;;;5.07;;
52786;SDS011;38661;53.152;5.846;2022-08-03T00:38:00;14.00;;;5.82;;
52786;SDS011;38661;53.152;5.846;2022-08-03T00:40:26;10.90;;;4.78;;
52786;SDS011;38661;53.152;5.846;2022-08-03T00:42:56;8.98;;;4.55;;
52786;SDS011;38661;53.152;5.846;2022-08-03T00:45:27;9.93;;;4.38;;
52786;SDS011;38661;53.152;5.846;2022-08-03T00:47:57;12.63;;;5.32;;
52786;SDS011;38661;53.152;5.846;2022-08-03T00:50:25;11.90;;;6.07;;
52786;SDS011;38661;53.152;5.846;2022-08-03T00:52:52;13.93;;;5.45;;
52786;SDS011;38661;53.152;5.846;2022-08-03T00:55:20;9.80;;;5.10;;
52786;SDS011;38661;53.152;5.846;2022-08-03T00:57:46;13.70;;;4.85;;
52786;SDS011;38661;53.152;5.846;2022-08-03T01:00:15;8.70;;;4.60;;
52786;SDS011;38661;53.152;5.846;2022-08-03T01:02:43;9.48;;;4.72;;
52786;SDS011;38661;53.152;5.846;2022-08-03T01:05:09;10.40;;;4.35;;
52786;SDS011;38661;53.152;5.846;2022-08-03T01:10:36;11.23;;;4.25;;
52786;SDS011;38661;53.152;5.846;2022-08-03T01:21:38;10.43;;;4.40;;
52786;SDS011;38661;53.152;5.846;2022-08-03T01:29:19;11.43;;;3.88;;
52786;SDS011;38661;53.152;5.846;2022-08-03T01:32:04;11.38;;;4.35;;
52786;SDS011;38661;53.152;5.846;2022-08-03T01:34:46;10.80;;;4.13;;
52786;SDS011;38661;53.152;5.846;2022-08-03T01:37:25;14.00;;;4.22;;
52786;SDS011;38661;53.152;5.846;2022-08-03T01:39:56;11.10;;;4.40;;
52786;SDS011;38661;53.152;5.846;2022-08-03T01:42:26;10.75;;;4.13;;
52786;SDS011;38661;53.152;5.846;2022-08-03T01:44:52;10.23;;;4.43;;
52786;SDS011;38661;53.152;5.846;2022-08-03T01:47:21;10.52;;;4.30;;
52786;SDS011;38661;53.152;5.846;2022-08-03T01:49:49;11.75;;;5.00;;
52786;SDS011;38661;53.152;5.846;2022-08-03T01:52:17;11.25;;;5.03;;
52786;SDS011;38661;53.152;5.846;2022-08-03T01:54:45;13.02;;;5.07;;
52786;SDS011;38661;53.152;5.846;2022-08-03T01:57:13;13.02;;;5.60;;
52786;SDS011;38661;53.152;5.846;2022-08-03T01:59:40;18.23;;;4.53;;
52786;SDS011;38661;53.152;5.846;2022-08-03T02:02:07;9.27;;;4.82;;
52786;SDS011;38661;53.152;5.846;2022-08-03T02:04:38;13.35;;;4.93;;
52786;SDS011;38661;53.152;5.846;2022-08-03T02:07:06;11.68;;;4.45;;
52786;SDS011;38661;53.152;5.846;2022-08-03T02:09:36;10.25;;;4.05;;
52786;SDS011;38661;53.152;5.846;2022-08-03T02:12:06;12.32;;;5.22;;
52786;SDS011;38661;53.152;5.846;2022-08-03T02:14:34;9.05;;;4.28;;
52786;SDS011;38661;53.152;5.846;2022-08-03T02:17:03;10.73;;;4.72;;
52786;SDS011;38661;53.152;5.846;2022-08-03T02:19:31;11.07;;;4.63;;
52786;SDS011;38661;53.152;5.846;2022-08-03T02:21:58;13.82;;;5.22;;
52786;SDS011;38661;53.152;5.846;2022-08-03T02:24:24;13.02;;;4.90;;
52786;SDS011;38661;53.152;5.846;2022-08-03T02:26:51;11.82;;;4.53;;
52786;SDS011;38661;53.152;5.846;2022-08-03T02:29:20;8.85;;;4.93;;
52786;SDS011;38661;53.152;5.846;2022-08-03T02:31:48;15.60;;;5.28;;
52786;SDS011;38661;53.152;5.846;2022-08-03T02:34:15;9.63;;;4.72;;
52786;SDS011;38661;53.152;5.846;2022-08-03T02:36:44;8.57;;;4.28;;
52786;SDS011;38661;53.152;5.846;2022-08-03T02:39:14;10.35;;;4.43;;
52786;SDS011;38661;53.152;5.846;2022-08-03T02:41:49;11.93;;;4.68;;
52786;SDS011;38661;53.152;5.846;2022-08-03T02:44:17;11.85;;;4.88;;
52786;SDS011;38661;53.152;5.846;2022-08-03T02:46:48;9.40;;;4.20;;
52786;SDS011;38661;53.152;5.846;2022-08-03T02:49:19;11.25;;;5.03;;
52786;SDS011;38661;53.152;5.846;2022-08-03T02:51:46;10.18;;;4.55;;
52786;SDS011;38661;53.152;5.846;2022-08-03T02:54:13;7.85;;;4.28;;
52786;SDS011;38661;53.152;5.846;2022-08-03T02:56:43;13.18;;;4.85;;
52786;SDS011;38661;53.152;5.846;2022-08-03T02:59:10;10.85;;;4.43;;
52786;SDS011;38661;53.152;5.846;2022-08-03T03:01:37;14.52;;;5.85;;
52786;SDS011;38661;53.152;5.846;2022-08-03T03:04:04;11.90;;;4.47;;
52786;SDS011;38661;53.152;5.846;2022-08-03T03:06:30;16.92;;;5.55;;
52786;SDS011;38661;53.152;5.846;2022-08-03T03:08:57;9.55;;;4.47;;
52786;SDS011;38661;53.152;5.846;2022-08-03T03:11:24;9.18;;;4.35;;
52786;SDS011;38661;53.152;5.846;2022-08-03T03:13:50;12.80;;;4.20;;
52786;SDS011;38661;53.152;5.846;2022-08-03T03:16:17;10.75;;;4.40;;
52786;SDS011;38661;53.152;5.846;2022-08-03T03:18:45;9.82;;;4.00;;
52786;SDS011;38661;53.152;5.846;2022-08-03T03:21:15;14.10;;;4.68;;
52786;SDS011;38661;53.152;5.846;2022-08-03T03:23:43;11.88;;;4.03;;
52786;SDS011;38661;53.152;5.846;2022-08-03T03:26:11;9.70;;;4.50;;
52786;SDS011;38661;53.152;5.846;2022-08-03T03:28:38;12.23;;;4.65;;
52786;SDS011;38661;53.152;5.846;2022-08-03T03:31:05;11.77;;;4.63;;
52786;SDS011;38661;53.152;5.846;2022-08-03T03:33:32;11.43;;;5.05;;
52786;SDS011;38661;53.152;5.846;2022-08-03T03:36:01;12.48;;;5.13;;
52786;SDS011;38661;53.152;5.846;2022-08-03T03:38:29;13.30;;;4.55;;
52786;SDS011;38661;53.152;5.846;2022-08-03T03:40:55;13.95;;;4.13;;
52786;SDS011;38661;53.152;5.846;2022-08-03T03:43:22;10.43;;;4.72;;
52786;SDS011;38661;53.152;5.846;2022-08-03T03:45:48;11.88;;;5.07;;
52786;SDS011;38661;53.152;5.846;2022-08-03T03:48:17;10.82;;;4.63;;
52786;SDS011;38661;53.152;5.846;2022-08-03T03:50:43;11.23;;;4.93;;
52786;SDS011;38661;53.152;5.846;2022-08-03T03:53:10;16.08;;;5.60;;
52786;SDS011;38661;53.152;5.846;2022-08-03T03:55:37;8.20;;;4.63;;
52786;SDS011;38661;53.152;5.846;2022-08-03T03:58:04;11.63;;;4.03;;
52786;SDS011;38661;53.152;5.846;2022-08-03T04:00:30;13.50;;;4.63;;
52786;SDS011;38661;53.152;5.846;2022-08-03T04:02:56;14.95;;;4.78;;
52786;SDS011;38661;53.152;5.846;2022-08-03T04:05:21;13.55;;;4.72;;
52786;SDS011;38661;53.152;5.846;2022-08-03T04:08:06;10.73;;;5.15;;
52786;SDS011;38661;53.152;5.846;2022-08-03T04:16:16;9.52;;;4.18;;
52786;SDS011;38661;53.152;5.846;2022-08-03T04:18:46;12.63;;;4.32;;
52786;SDS011;38661;53.152;5.846;2022-08-03T04:21:15;12.95;;;4.60;;
52786;SDS011;38661;53.152;5.846;2022-08-03T04:23:45;12.10;;;4.00;;
52786;SDS011;38661;53.152;5.846;2022-08-03T04:26:14;12.88;;;4.20;;
52786;SDS011;38661;53.152;5.846;2022-08-03T04:28:44;14.02;;;5.45;;
52786;SDS011;38661;53.152;5.846;2022-08-03T04:31:13;9.43;;;4.10;;
52786;SDS011;38661;53.152;5.846;2022-08-03T04:33:40;8.95;;;3.50;;
52786;SDS011;38661;53.152;5.846;2022-08-03T04:36:09;16.60;;;4.30;;
52786;SDS011;38661;53.152;5.846;2022-08-03T04:38:41;9.30;;;4.03;;
52786;SDS011;38661;53.152;5.846;2022-08-03T04:41:16;14.48;;;4.80;;
52786;SDS011;38661;53.152;5.846;2022-08-03T04:43:43;11.40;;;4.45;;
52786;SDS011;38661;53.152;5.846;2022-08-03T04:46:10;11.43;;;4.15;;
52786;SDS011;38661;53.152;5.846;2022-08-03T04:48:36;11.73;;;4.65;;
52786;SDS011;38661;53.152;5.846;2022-08-03T04:51:03;12.82;;;4.63;;
52786;SDS011;38661;53.152;5.846;2022-08-03T04:53:29;11.30;;;4.45;;
52786;SDS011;38661;53.152;5.846;2022-08-03T04:56:02;11.43;;;4.90;;
52786;SDS011;38661;53.152;5.846;2022-08-03T04:58:29;19.83;;;5.40;;
52786;SDS011;38661;53.152;5.846;2022-08-03T05:00:55;12.13;;;4.55;;
52786;SDS011;38661;53.152;5.846;2022-08-03T05:03:20;13.10;;;4.63;;
52786;SDS011;38661;53.152;5.846;2022-08-03T05:05:46;15.18;;;5.05;;
52786;SDS011;38661;53.152;5.846;2022-08-03T05:08:12;10.25;;;4.60;;
52786;SDS011;38661;53.152;5.846;2022-08-03T05:10:37;15.70;;;4.40;;
52786;SDS011;38661;53.152;5.846;2022-08-03T05:13:03;15.32;;;5.35;;
52786;SDS011;38661;53.152;5.846;2022-08-03T05:15:29;12.88;;;4.70;;
52786;SDS011;38661;53.152;5.846;2022-08-03T05:17:54;18.42;;;4.88;;
52786;SDS011;38661;53.152;5.846;2022-08-03T05:20:20;13.00;;;4.40;;
52786;SDS011;38661;53.152;5.846;2022-08-03T05:22:46;8.00;;;4.18;;
52786;SDS011;38661;53.152;5.846;2022-08-03T05:25:11;14.63;;;4.30;;
52786;SDS011;38661;53.152;5.846;2022-08-03T05:27:37;19.45;;;4.88;;
52786;SDS011;38661;53.152;5.846;2022-08-03T05:30:03;12.57;;;4.57;;
52786;SDS011;38661;53.152;5.846;2022-08-03T05:32:29;14.02;;;4.03;;
52786;SDS011;38661;53.152;5.846;2022-08-03T05:34:55;9.80;;;3.95;;
52786;SDS011;38661;53.152;5.846;2022-08-03T05:37:22;10.88;;;4.00;;
52786;SDS011;38661;53.152;5.846;2022-08-03T05:39:47;14.68;;;4.70;;
52786;SDS011;38661;53.152;5.846;2022-08-03T05:42:14;10.75;;;4.93;;
52786;SDS011;38661;53.152;5.846;2022-08-03T05:44:40;12.68;;;4.10;;
52786;SDS011;38661;53.152;5.846;2022-08-03T05:47:06;16.52;;;4.80;;
52786;SDS011;38661;53.152;5.846;2022-08-03T05:49:32;13.63;;;4.60;;
52786;SDS011;38661;53.152;5.846;2022-08-03T05:51:57;13.38;;;4.10;;
52786;SDS011;38661;53.152;5.846;2022-08-03T05:54:23;14.65;;;4.25;;
52786;SDS011;38661;53.152;5.846;2022-08-03T05:56:49;9.88;;;4.35;;
52786;SDS011;38661;53.152;5.846;2022-08-03T05:59:14;16.13;;;4.53;;
52786;SDS011;38661;53.152;5.846;2022-08-03T06:01:40;9.45;;;4.18;;
52786;SDS011;38661;53.152;5.846;2022-08-03T06:04:06;15.45;;;4.53;;
52786;SDS011;38661;53.152;5.846;2022-08-03T06:06:31;11.50;;;4.97;;
52786;SDS011;38661;53.152;5.846;2022-08-03T06:08:57;20.10;;;4.72;;
52786;SDS011;38661;53.152;5.846;2022-08-03T06:11:23;16.60;;;4.53;;
52786;SDS011;38661;53.152;5.846;2022-08-03T06:13:49;18.02;;;4.75;;
52786;SDS011;38661;53.152;5.846;2022-08-03T06:16:14;12.05;;;4.22;;
52786;SDS011;38661;53.152;5.846;2022-08-03T06:18:40;15.57;;;5.22;;
52786;SDS011;38661;53.152;5.846;2022-08-03T06:21:06;14.43;;;4.63;;
52786;SDS011;38661;53.152;5.846;2022-08-03T06:23:31;20.40;;;6.20;;
52786;SDS011;38661;53.152;5.846;2022-08-03T06:25:57;20.08;;;5.53;;
52786;SDS011;38661;53.152;5.846;2022-08-03T06:28:23;15.40;;;4.95;;
52786;SDS011;38661;53.152;5.846;2022-08-03T06:30:48;17.45;;;4.88;;
52786;SDS011;38661;53.152;5.846;2022-08-03T06:33:14;15.88;;;4.82;;
52786;SDS011;38661;53.152;5.846;2022-08-03T06:35:40;12.00;;;4.85;;
52786;SDS011;38661;53.152;5.846;2022-08-03T06:38:06;14.45;;;4.60;;
52786;SDS011;38661;53.152;5.846;2022-08-03T06:40:35;13.65;;;5.32;;
52786;SDS011;38661;53.152;5.846;2022-08-03T06:43:04;16.75;;;5.13;;
52786;SDS011;38661;53.152;5.846;2022-08-03T06:45:31;13.45;;;5.28;;
52786;SDS011;38661;53.152;5.846;2022-08-03T06:48:01;12.30;;;4.18;;
52786;SDS011;38661;53.152;5.846;2022-08-03T06:50:31;17.67;;;4.70;;
52786;SDS011;38661;53.152;5.846;2022-08-03T06:52:58;16.65;;;6.30;;
52786;SDS011;38661;53.152;5.846;2022-08-03T06:55:24;16.75;;;6.30;;
52786;SDS011;38661;53.152;5.846;2022-08-03T06:57:50;13.77;;;5.75;;
52786;SDS011;38661;53.152;5.846;2022-08-03T07:00:17;13.32;;;4.82;;
52786;SDS011;38661;53.152;5.846;2022-08-03T07:02:43;16.92;;;6.13;;
52786;SDS011;38661;53.152;5.846;2022-08-03T07:05:09;14.40;;;5.55;;
52786;SDS011;38661;53.152;5.846;2022-08-03T07:07:35;13.15;;;5.32;;
52786;SDS011;38661;53.152;5.846;2022-08-03T07:10:01;14.18;;;4.70;;
52786;SDS011;38661;53.152;5.846;2022-08-03T07:12:29;16.25;;;4.97;;
52786;SDS011;38661;53.152;5.846;2022-08-03T07:14:56;20.17;;;5.20;;
52786;SDS011;38661;53.152;5.846;2022-08-03T07:17:23;14.25;;;5.57;;
52786;SDS011;38661;53.152;5.846;2022-08-03T07:19:48;10.93;;;5.18;;
52786;SDS011;38661;53.152;5.846;2022-08-03T07:22:14;14.73;;;5.35;;
52786;SDS011;38661;53.152;5.846;2022-08-03T07:24:40;13.13;;;5.32;;
52786;SDS011;38661;53.152;5.846;2022-08-03T07:27:06;20.15;;;6.38;;
52786;SDS011;38661;53.152;5.846;2022-08-03T07:29:33;15.10;;;6.10;;
52786;SDS011;38661;53.152;5.846;2022-08-03T07:31:59;17.02;;;5.32;;
52786;SDS011;38661;53.152;5.846;2022-08-03T07:34:25;15.75;;;5.75;;
52786;SDS011;38661;53.152;5.846;2022-08-03T07:36:51;16.88;;;5.88;;
52786;SDS011;38661;53.152;5.846;2022-08-03T07:39:17;13.18;;;5.03;;
52786;SDS011;38661;53.152;5.846;2022-08-03T07:41:42;14.32;;;5.70;;
52786;SDS011;38661;53.152;5.846;2022-08-03T07:44:08;13.85;;;4.95;;
52786;SDS011;38661;53.152;5.846;2022-08-03T07:46:34;18.98;;;6.75;;
52786;SDS011;38661;53.152;5.846;2022-08-03T07:48:59;17.23;;;6.43;;
52786;SDS011;38661;53.152;5.846;2022-08-03T07:51:25;17.02;;;6.45;;
52786;SDS011;38661;53.152;5.846;2022-08-03T07:53:51;16.05;;;5.72;;
52786;SDS011;38661;53.152;5.846;2022-08-03T07:56:16;17.17;;;6.95;;
52786;SDS011;38661;53.152;5.846;2022-08-03T07:58:43;18.77;;;7.20;;
52786;SDS011;38661;53.152;5.846;2022-08-03T08:01:09;16.35;;;5.75;;
52786;SDS011;38661;53.152;5.846;2022-08-03T08:03:35;19.08;;;7.22;;
52786;SDS011;38661;53.152;5.846;2022-08-03T08:06:00;14.93;;;5.78;;
52786;SDS011;38661;53.152;5.846;2022-08-03T08:08:26;23.10;;;6.30;;
52786;SDS011;38661;53.152;5.846;2022-08-03T08:10:52;19.27;;;7.32;;
52786;SDS011;38661;53.152;5.846;2022-08-03T08:13:17;23.60;;;8.73;;
52786;SDS011;38661;53.152;5.846;2022-08-03T08:15:43;15.55;;;7.05;;
52786;SDS011;38661;53.152;5.846;2022-08-03T08:18:08;17.65;;;7.97;;
52786;SDS011;38661;53.152;5.846;2022-08-03T08:20:34;18.25;;;7.28;;
52786;SDS011;38661;53.152;5.846;2022-08-03T08:23:04;17.10;;;6.53;;
52786;SDS011;38661;53.152;5.846;2022-08-03T08:25:31;18.92;;;6.78;;
52786;SDS011;38661;53.152;5.846;2022-08-03T08:27:57;18.17;;;7.40;;
52786;SDS011;38661;53.152;5.846;2022-08-03T08:30:26;23.00;;;8.70;;
52786;SDS011;38661;53.152;5.846;2022-08-03T08:32:52;16.73;;;7.45;;
52786;SDS011;38661;53.152;5.846;2022-08-03T08:35:18;17.17;;;7.38;;
52786;SDS011;38661;53.152;5.846;2022-08-03T08:37:44;20.17;;;8.65;;
52786;SDS011;38661;53.152;5.846;2022-08-03T08:40:10;16.38;;;8.73;;
52786;SDS011;38661;53.152;5.846;2022-08-03T08:42:38;17.33;;;9.57;;
52786;SDS011;38661;53.152;5.846;2022-08-03T08:45:04;20.67;;;8.90;;
52786;SDS011;38661;53.152;5.846;2022-08-03T08:47:32;17.83;;;9.15;;
52786;SDS011;38661;53.152;5.846;2022-08-03T08:50:04;20.50;;;9.30;;
52786;SDS011;38661;53.152;5.846;2022-08-03T08:52:32;16.38;;;10.45;;
52786;SDS011;38661;53.152;5.846;2022-08-03T08:55:00;16.85;;;10.77;;
52786;SDS011;38661;53.152;5.846;2022-08-03T08:57:31;15.48;;;9.95;;
52786;SDS011;38661;53.152;5.846;2022-08-03T09:00:00;17.85;;;10.18;;
52786;SDS011;38661;53.152;5.846;2022-08-03T09:02:29;18.88;;;9.90;;
52786;SDS011;38661;53.152;5.846;2022-08-03T09:04:55;23.13;;;12.13;;
52786;SDS011;38661;53.152;5.846;2022-08-03T09:07:21;22.67;;;12.07;;
52786;SDS011;38661;53.152;5.846;2022-08-03T09:09:47;18.67;;;12.20;;
52786;SDS011;38661;53.152;5.846;2022-08-03T09:12:13;21.75;;;11.70;;
52786;SDS011;38661;53.152;5.846;2022-08-03T09:14:39;21.17;;;12.52;;
52786;SDS011;38661;53.152;5.846;2022-08-03T09:17:05;26.58;;;13.05;;
52786;SDS011;38661;53.152;5.846;2022-08-03T09:19:31;20.98;;;13.50;;
52786;SDS011;38661;53.152;5.846;2022-08-03T09:22:12;20.90;;;13.50;;
52786;SDS011;38661;53.152;5.846;2022-08-03T09:24:52;18.52;;;12.57;;
52786;SDS011;38661;53.152;5.846;2022-08-03T09:27:22;21.33;;;12.98;;
52786;SDS011;38661;53.152;5.846;2022-08-03T09:29:49;20.83;;;12.55;;
52786;SDS011;38661;53.152;5.846;2022-08-03T09:32:18;27.85;;;13.65;;
52786;SDS011;38661;53.152;5.846;2022-08-03T09:34:49;22.80;;;12.10;;
52786;SDS011;38661;53.152;5.846;2022-08-03T09:37:17;26.02;;;14.30;;
52786;SDS011;38661;53.152;5.846;2022-08-03T09:39:45;22.75;;;13.65;;
52786;SDS011;38661;53.152;5.846;2022-08-03T09:42:12;25.20;;;14.82;;
52786;SDS011;38661;53.152;5.846;2022-08-03T09:44:40;29.48;;;13.98;;
52786;SDS011;38661;53.152;5.846;2022-08-03T09:47:08;23.63;;;14.80;;
52786;SDS011;38661;53.152;5.846;2022-08-03T09:49:35;20.83;;;13.68;;
52786;SDS011;38661;53.152;5.846;2022-08-03T09:52:11;24.77;;;14.07;;
52786;SDS011;38661;53.152;5.846;2022-08-03T09:54:39;24.95;;;13.10;;
52786;SDS011;38661;53.152;5.846;2022-08-03T09:57:06;22.80;;;13.98;;
52786;SDS011;38661;53.152;5.846;2022-08-03T09:59:32;24.05;;;14.60;;
52786;SDS011;38661;53.152;5.846;2022-08-03T10:01:58;32.25;;;14.38;;
52786;SDS011;38661;53.152;5.846;2022-08-03T10:04:25;24.17;;;15.05;;
52786;SDS011;38661;53.152;5.846;2022-08-03T10:07:07;23.00;;;14.77;;
52786;SDS011;38661;53.152;5.846;2022-08-03T10:09:34;27.48;;;14.85;;
52786;SDS011;38661;53.152;5.846;2022-08-03T10:12:10;24.25;;;14.02;;
52786;SDS011;38661;53.152;5.846;2022-08-03T10:14:38;21.70;;;12.88;;
52786;SDS011;38661;53.152;5.846;2022-08-03T10:17:06;25.17;;;15.45;;
52786;SDS011;38661;53.152;5.846;2022-08-03T10:19:33;25.92;;;12.55;;
52786;SDS011;38661;53.152;5.846;2022-08-03T10:22:03;29.95;;;14.55;;
52786;SDS011;38661;53.152;5.846;2022-08-03T10:24:36;21.45;;;13.50;;
52786;SDS011;38661;53.152;5.846;2022-08-03T10:27:06;24.85;;;14.23;;
52786;SDS011;38661;53.152;5.846;2022-08-03T10:29:36;32.03;;;14.65;;
52786;SDS011;38661;53.152;5.846;2022-08-03T10:32:03;23.98;;;12.98;;
52786;SDS011;38661;53.152;5.846;2022-08-03T10:34:53;28.15;;;13.98;;
52786;SDS011;38661;53.152;5.846;2022-08-03T10:37:44;24.17;;;13.75;;
52786;SDS011;38661;53.152;5.846;2022-08-03T10:40:21;24.35;;;13.90;;
52786;SDS011;38661;53.152;5.846;2022-08-03T10:42:48;24.92;;;13.45;;
52786;SDS011;38661;53.152;5.846;2022-08-03T10:45:19;19.60;;;13.60;;
52786;SDS011;38661;53.152;5.846;2022-08-03T10:47:48;24.33;;;12.63;;
52786;SDS011;38661;53.152;5.846;2022-08-03T10:50:16;23.67;;;12.23;;
52786;SDS011;38661;53.152;5.846;2022-08-03T10:52:53;17.80;;;13.18;;
52786;SDS011;38661;53.152;5.846;2022-08-03T11:01:05;21.20;;;12.73;;
52786;SDS011;38661;53.152;5.846;2022-08-03T11:03:33;26.70;;;13.20;;
52786;SDS011;38661;53.152;5.846;2022-08-03T11:06:23;21.88;;;13.48;;
52786;SDS011;38661;53.152;5.846;2022-08-03T11:11:34;30.45;;;15.45;;
52786;SDS011;38661;53.152;5.846;2022-08-03T11:16:34;22.10;;;14.20;;
52786;SDS011;38661;53.152;5.846;2022-08-03T11:19:26;26.15;;;13.35;;
52786;SDS011;38661;53.152;5.846;2022-08-03T11:22:17;25.58;;;14.55;;
52786;SDS011;38661;53.152;5.846;2022-08-03T11:44:01;20.85;;;10.65;;
52786;SDS011;38661;53.152;5.846;2022-08-03T11:46:10;20.92;;;11.70;;
52786;SDS011;38661;53.152;5.846;2022-08-03T11:48:45;19.40;;;9.65;;
52786;SDS011;38661;53.152;5.846;2022-08-03T11:56:15;17.38;;;8.40;;
52786;SDS011;38661;53.152;5.846;2022-08-03T11:58:48;24.25;;;10.73;;
52786;SDS011;38661;53.152;5.846;2022-08-03T12:01:17;26.70;;;10.95;;
52786;SDS011;38661;53.152;5.846;2022-08-03T12:03:44;18.45;;;10.18;;
52786;SDS011;38661;53.152;5.846;2022-08-03T12:06:11;25.90;;;12.15;;
52786;SDS011;38661;53.152;5.846;2022-08-03T12:08:39;22.55;;;10.20;;
52786;SDS011;38661;53.152;5.846;2022-08-03T12:11:06;19.58;;;8.77;;
52786;SDS011;38661;53.152;5.846;2022-08-03T12:16:33;21.67;;;9.48;;
52786;SDS011;38661;53.152;5.846;2022-08-03T12:18:58;20.75;;;10.18;;
52786;SDS011;38661;53.152;5.846;2022-08-03T12:21:25;17.50;;;8.70;;
52786;SDS011;38661;53.152;5.846;2022-08-03T12:24:10;23.60;;;9.25;;
52786;SDS011;38661;53.152;5.846;2022-08-03T12:26:43;14.27;;;9.23;;
52786;SDS011;38661;53.152;5.846;2022-08-03T12:29:19;23.05;;;9.57;;
52786;SDS011;38661;53.152;5.846;2022-08-03T12:31:47;20.90;;;9.93;;
52786;SDS011;38661;53.152;5.846;2022-08-03T12:34:13;19.02;;;9.50;;
52786;SDS011;38661;53.152;5.846;2022-08-03T12:36:48;16.77;;;8.48;;
52786;SDS011;38661;53.152;5.846;2022-08-03T12:39:23;15.63;;;8.90;;
52786;SDS011;38661;53.152;5.846;2022-08-03T12:41:52;18.00;;;8.40;;
52786;SDS011;38661;53.152;5.846;2022-08-03T12:44:27;17.73;;;8.80;;
52786;SDS011;38661;53.152;5.846;2022-08-03T12:46:58;19.35;;;10.13;;
52786;SDS011;38661;53.152;5.846;2022-08-03T12:49:25;17.35;;;9.13;;
52786;SDS011;38661;53.152;5.846;2022-08-03T12:54:18;15.73;;;9.13;;
52786;SDS011;38661;53.152;5.846;2022-08-03T12:56:55;17.58;;;8.55;;
52786;SDS011;38661;53.152;5.846;2022-08-03T12:59:32;20.20;;;7.93;;
52786;SDS011;38661;53.152;5.846;2022-08-03T13:02:00;20.13;;;8.73;;
52786;SDS011;38661;53.152;5.846;2022-08-03T13:04:27;22.27;;;10.25;;
52786;SDS011;38661;53.152;5.846;2022-08-03T13:07:00;17.92;;;7.93;;
52786;SDS011;38661;53.152;5.846;2022-08-03T13:09:28;18.65;;;8.07;;
52786;SDS011;38661;53.152;5.846;2022-08-03T13:12:06;18.15;;;8.55;;
52786;SDS011;38661;53.152;5.846;2022-08-03T13:14:33;22.42;;;7.45;;
52786;SDS011;38661;53.152;5.846;2022-08-03T13:16:59;15.18;;;7.60;;
52786;SDS011;38661;53.152;5.846;2022-08-03T13:19:25;20.25;;;9.43;;
52786;SDS011;38661;53.152;5.846;2022-08-03T13:21:50;17.83;;;8.70;;
52786;SDS011;38661;53.152;5.846;2022-08-03T13:24:16;18.60;;;8.82;;
52786;SDS011;38661;53.152;5.846;2022-08-03T13:26:43;18.25;;;8.43;;
52786;SDS011;38661;53.152;5.846;2022-08-03T13:29:08;17.10;;;7.30;;
52786;SDS011;38661;53.152;5.846;2022-08-03T13:31:34;18.67;;;8.98;;
52786;SDS011;38661;53.152;5.846;2022-08-03T13:34:00;17.23;;;9.38;;
52786;SDS011;38661;53.152;5.846;2022-08-03T13:36:25;17.88;;;7.88;;
52786;SDS011;38661;53.152;5.846;2022-08-03T13:38:51;20.95;;;7.95;;
52786;SDS011;38661;53.152;5.846;2022-08-03T13:41:17;14.70;;;7.57;;
52786;SDS011;38661;53.152;5.846;2022-08-03T13:43:43;19.20;;;8.20;;
52786;SDS011;38661;53.152;5.846;2022-08-03T13:46:08;15.02;;;8.23;;
52786;SDS011;38661;53.152;5.846;2022-08-03T13:48:34;21.00;;;8.30;;
52786;SDS011;38661;53.152;5.846;2022-08-03T13:51:00;16.40;;;8.40;;
52786;SDS011;38661;53.152;5.846;2022-08-03T13:53:25;18.80;;;8.50;;
52786;SDS011;38661;53.152;5.846;2022-08-03T13:55:51;16.45;;;7.68;;
52786;SDS011;38661;53.152;5.846;2022-08-03T13:58:17;20.30;;;8.27;;
52786;SDS011;38661;53.152;5.846;2022-08-03T14:00:42;19.23;;;7.68;;
52786;SDS011;38661;53.152;5.846;2022-08-03T14:03:08;16.65;;;7.28;;
52786;SDS011;38661;53.152;5.846;2022-08-03T14:05:34;19.35;;;7.47;;
52786;SDS011;38661;53.152;5.846;2022-08-03T14:08:02;15.73;;;7.38;;
52786;SDS011;38661;53.152;5.846;2022-08-03T14:10:34;18.38;;;9.15;;
52786;SDS011;38661;53.152;5.846;2022-08-03T14:13:02;20.23;;;10.93;;
52786;SDS011;38661;53.152;5.846;2022-08-03T14:15:28;21.70;;;9.65;;
52786;SDS011;38661;53.152;5.846;2022-08-03T14:17:54;14.73;;;7.70;;
52786;SDS011;38661;53.152;5.846;2022-08-03T14:20:20;17.23;;;8.20;;
52786;SDS011;38661;53.152;5.846;2022-08-03T14:22:46;16.58;;;9.00;;
52786;SDS011;38661;53.152;5.846;2022-08-03T14:25:12;16.80;;;9.52;;
52786;SDS011;38661;53.152;5.846;2022-08-03T14:27:37;20.48;;;9.63;;
52786;SDS011;38661;53.152;5.846;2022-08-03T14:30:03;16.95;;;9.25;;
52786;SDS011;38661;53.152;5.846;2022-08-03T14:32:29;18.45;;;9.65;;
52786;SDS011;38661;53.152;5.846;2022-08-03T14:34:55;17.48;;;10.13;;
52786;SDS011;38661;53.152;5.846;2022-08-03T14:37:20;17.13;;;8.43;;
52786;SDS011;38661;53.152;5.846;2022-08-03T14:39:46;16.52;;;8.23;;
52786;SDS011;38661;53.152;5.846;2022-08-03T14:42:12;15.05;;;7.75;;
52786;SDS011;38661;53.152;5.846;2022-08-03T14:44:39;18.63;;;8.35;;
52786;SDS011;38661;53.152;5.846;2022-08-03T14:47:05;15.45;;;7.65;;
52786;SDS011;38661;53.152;5.846;2022-08-03T14:49:31;13.73;;;5.57;;
52786;SDS011;38661;53.152;5.846;2022-08-03T14:51:56;15.82;;;6.03;;
52786;SDS011;38661;53.152;5.846;2022-08-03T14:54:22;11.43;;;5.75;;
52786;SDS011;38661;53.152;5.846;2022-08-03T14:56:48;12.98;;;4.38;;
52786;SDS011;38661;53.152;5.846;2022-08-03T14:59:14;16.98;;;5.07;;
52786;SDS011;38661;53.152;5.846;2022-08-03T15:01:40;18.35;;;5.28;;
52786;SDS011;38661;53.152;5.846;2022-08-03T15:04:05;14.18;;;5.82;;
52786;SDS011;38661;53.152;5.846;2022-08-03T15:06:31;15.23;;;6.03;;
52786;SDS011;38661;53.152;5.846;2022-08-03T15:08:57;15.77;;;6.30;;
52786;SDS011;38661;53.152;5.846;2022-08-03T15:11:22;12.02;;;6.40;;
52786;SDS011;38661;53.152;5.846;2022-08-03T15:13:48;16.58;;;4.97;;
52786;SDS011;38661;53.152;5.846;2022-08-03T15:16:14;13.10;;;5.15;;
52786;SDS011;38661;53.152;5.846;2022-08-03T15:18:39;15.63;;;5.97;;
52786;SDS011;38661;53.152;5.846;2022-08-03T15:21:05;12.73;;;5.18;;
52786;SDS011;38661;53.152;5.846;2022-08-03T15:23:31;17.30;;;5.50;;
52786;SDS011;38661;53.152;5.846;2022-08-03T15:25:56;12.52;;;4.68;;
52786;SDS011;38661;53.152;5.846;2022-08-03T15:28:22;15.10;;;4.57;;
52786;SDS011;38661;53.152;5.846;2022-08-03T15:30:50;14.30;;;6.47;;
52786;SDS011;38661;53.152;5.846;2022-08-03T15:33:16;14.40;;;5.55;;
52786;SDS011;38661;53.152;5.846;2022-08-03T15:35:42;10.57;;;4.18;;
52786;SDS011;38661;53.152;5.846;2022-08-03T15:38:08;17.02;;;4.95;;
52786;SDS011;38661;53.152;5.846;2022-08-03T15:40:33;14.13;;;4.47;;